createdAt,value
2019-04-06T00:00:54.461Z,25.67
2019-04-06T00:03:23.982Z,26.53
2019-04-06T00:05:53.595Z,26.50
2019-04-06T00:08:23.109Z,25.60
2019-04-06T00:10:55.069Z,26.60
2019-04-06T00:13:23.993Z,28.37
2019-04-06T00:15:53.571Z,27.87
2019-04-06T00:18:25.666Z,28.70
2019-04-06T00:20:55.319Z,30.43
2019-04-06T00:23:26.511Z,29.97
2019-04-06T00:25:56.007Z,31.17
2019-04-06T00:28:25.582Z,31.13
2019-04-06T00:31:03.855Z,29.53
2019-04-06T00:33:33.635Z,30.40
2019-04-06T00:36:03.220Z,31.83
2019-04-06T00:38:33.893Z,31.83
2019-04-06T00:41:03.531Z,32.63
2019-04-06T00:43:33.119Z,32.83
2019-04-06T00:46:02.591Z,32.10
2019-04-06T00:48:32.242Z,34.07
2019-04-06T00:51:01.711Z,35.07
2019-04-06T00:53:31.245Z,33.57
2019-04-06T00:56:02.326Z,32.97
2019-04-06T00:58:31.843Z,34.13
2019-04-06T01:01:01.398Z,33.53
2019-04-06T01:03:30.990Z,32.70
2019-04-06T01:06:00.494Z,31.43
2019-04-06T01:08:30.124Z,31.20
2019-04-06T01:10:59.568Z,32.47
2019-04-06T01:13:29.236Z,30.70
2019-04-06T01:15:58.737Z,31.17
2019-04-06T01:18:28.988Z,30.87
2019-04-06T01:20:58.460Z,34.60
2019-04-06T01:23:27.981Z,33.03
2019-04-06T01:26:06.630Z,34.37
2019-04-06T01:28:28.662Z,33.90
2019-04-06T01:30:58.143Z,33.83
2019-04-06T01:33:27.662Z,34.93
2019-04-06T01:35:57.230Z,34.33
2019-04-06T01:38:26.781Z,35.50
2019-04-06T01:40:56.327Z,34.07
2019-04-06T01:43:25.812Z,34.37
2019-04-06T01:45:55.357Z,33.47
2019-04-06T01:48:24.958Z,34.87
2019-04-06T01:50:54.499Z,36.50
2019-04-06T01:53:24.087Z,33.27
2019-04-06T01:55:53.563Z,33.30
2019-04-06T01:58:23.226Z,35.77
2019-04-06T02:01:10.860Z,35.03
2019-04-06T02:03:40.447Z,36.07
2019-04-06T02:06:10.067Z,38.20
2019-04-06T02:08:39.662Z,38.03
2019-04-06T02:11:09.295Z,38.53
2019-04-06T02:13:38.795Z,38.33
2019-04-06T02:16:08.261Z,39.33
2019-04-06T02:18:37.753Z,39.60
2019-04-06T02:21:07.225Z,40.03
2019-04-06T02:23:36.732Z,39.87
2019-04-06T02:26:06.271Z,40.97
2019-04-06T02:28:35.877Z,39.23
2019-04-06T02:31:07.063Z,41.13
2019-04-06T02:33:43.804Z,42.30
2019-04-06T02:36:17.667Z,38.67
2019-04-06T02:38:51.875Z,40.40
2019-04-06T02:41:23.076Z,39.40
2019-04-06T02:43:52.659Z,39.10
2019-04-06T02:46:22.387Z,39.30
2019-04-06T02:48:51.957Z,38.73
2019-04-06T02:51:21.552Z,38.77
2019-04-06T02:53:51.090Z,40.93
2019-04-06T02:56:20.621Z,38.63
2019-04-06T02:58:50.291Z,39.03
2019-04-06T03:01:19.719Z,40.30
2019-04-06T03:03:49.659Z,39.17
2019-04-06T03:06:19.192Z,39.17
2019-04-06T03:08:48.750Z,41.40
2019-04-06T03:11:18.350Z,39.07
2019-04-06T03:13:48.000Z,38.53
2019-04-06T03:16:17.552Z,38.97
2019-04-06T03:18:47.050Z,37.90
2019-04-06T03:21:16.517Z,37.93
2019-04-06T03:23:51.463Z,39.90
2019-04-06T03:26:17.145Z,38.70
2019-04-06T03:28:46.888Z,39.57
2019-04-06T03:31:16.390Z,38.67
2019-04-06T03:33:45.905Z,40.97
2019-04-06T03:36:15.430Z,40.40
2019-04-06T03:38:46.590Z,40.00
2019-04-06T03:41:16.053Z,40.60
2019-04-06T03:43:45.530Z,41.30
2019-04-06T03:46:15.075Z,41.60
2019-04-06T03:48:44.803Z,39.43
2019-04-06T03:51:14.243Z,40.00
2019-04-06T03:53:43.801Z,38.80
2019-04-06T03:56:13.429Z,39.93
2019-04-06T03:58:42.879Z,40.97
2019-04-06T04:01:12.516Z,40.80
2019-04-06T04:03:42.411Z,39.20
2019-04-06T04:06:13.025Z,43.67
2019-04-06T04:08:42.567Z,43.63
2019-04-06T04:11:11.934Z,44.73
2019-04-06T04:13:41.308Z,45.40
2019-04-06T04:16:10.748Z,45.90
2019-04-06T04:18:40.290Z,45.73
2019-04-06T04:21:09.734Z,47.23
2019-04-06T04:23:39.273Z,48.70
2019-04-06T04:26:08.866Z,47.20
2019-04-06T04:28:38.330Z,49.20
2019-04-06T04:31:07.767Z,51.37
2019-04-06T04:33:37.263Z,51.70
2019-04-06T04:36:06.922Z,50.43
2019-04-06T04:38:36.320Z,53.63
2019-04-06T04:41:05.770Z,51.80
2019-04-06T04:43:35.209Z,53.03
2019-04-06T04:46:04.715Z,52.90
2019-04-06T04:48:34.578Z,54.23
2019-04-06T04:51:04.542Z,54.60
2019-04-06T04:53:33.994Z,51.40
2019-04-06T04:56:03.393Z,52.87
2019-04-06T04:58:32.884Z,55.70
2019-04-06T05:01:02.323Z,54.70
2019-04-06T05:03:31.733Z,54.73
2019-04-06T05:06:01.275Z,55.83
2019-04-06T05:08:30.716Z,54.90
2019-04-06T05:11:00.262Z,56.77
2019-04-06T05:13:29.827Z,56.60
2019-04-06T05:16:14.811Z,57.60
2019-04-06T05:18:44.261Z,58.00
2019-04-06T05:21:15.343Z,56.37
2019-04-06T05:23:44.761Z,57.77
2019-04-06T05:26:14.174Z,58.33
2019-04-06T05:28:43.687Z,57.87
2019-04-06T05:31:13.235Z,59.27
2019-04-06T05:33:42.680Z,58.57
2019-04-06T05:36:12.166Z,58.77
2019-04-06T05:38:41.715Z,57.90
2019-04-06T05:41:11.273Z,60.87
2019-04-06T05:43:40.812Z,57.40
2019-04-06T05:46:10.551Z,60.17
2019-04-06T05:48:40.039Z,63.23
2019-04-06T05:51:09.543Z,60.73
2019-04-06T05:53:39.044Z,64.27
2019-04-06T05:56:10.301Z,63.73
2019-04-06T05:58:40.669Z,61.47
2019-04-06T06:01:11.361Z,62.73
2019-04-06T06:03:41.606Z,63.23
2019-04-06T06:06:12.558Z,65.27
2019-04-06T06:08:42.415Z,64.47
2019-04-06T06:11:12.601Z,62.90
2019-04-06T06:13:41.958Z,64.60
2019-04-06T06:16:12.072Z,65.77
2019-04-06T06:18:41.808Z,66.90
2019-04-06T06:21:11.274Z,66.27
2019-04-06T06:23:40.795Z,67.63
2019-04-06T06:26:10.311Z,65.40
2019-04-06T06:28:39.758Z,69.97
2019-04-06T06:31:09.218Z,68.67
2019-04-06T06:33:38.841Z,69.90
2019-04-06T06:36:09.636Z,71.93
2019-04-06T06:38:39.478Z,68.57
2019-04-06T06:41:09.187Z,70.60
2019-04-06T06:43:38.556Z,70.83
2019-04-06T06:46:08.216Z,71.13
2019-04-06T06:48:37.726Z,72.10
2019-04-06T06:51:07.199Z,73.70
2019-04-06T06:53:36.592Z,74.83
2019-04-06T06:56:06.199Z,70.40
2019-04-06T06:58:35.918Z,72.57
2019-04-06T07:01:05.552Z,74.17
2019-04-06T07:03:35.054Z,75.70
2019-04-06T07:06:04.727Z,79.97
2019-04-06T07:08:34.210Z,81.37
2019-04-06T07:11:03.792Z,80.60
2019-04-06T07:13:33.260Z,79.80
2019-04-06T07:16:02.792Z,80.50
2019-04-06T07:18:32.268Z,85.17
2019-04-06T07:21:01.902Z,83.70
2019-04-06T07:23:31.850Z,79.50
2019-04-06T07:26:01.461Z,82.97
2019-04-06T07:28:37.792Z,83.07
2019-04-06T07:31:02.202Z,81.30
2019-04-06T07:33:31.631Z,85.23
2019-04-06T07:36:01.081Z,84.03
2019-04-06T07:38:30.830Z,82.40
2019-04-06T07:41:00.271Z,80.97
2019-04-06T07:43:29.813Z,83.87
2019-04-06T07:45:59.316Z,82.53
2019-04-06T07:48:28.873Z,86.07
2019-04-06T07:50:58.687Z,79.57
2019-04-06T07:53:28.103Z,85.23
2019-04-06T07:55:57.549Z,84.03
2019-04-06T07:58:26.996Z,82.73
2019-04-06T08:00:56.478Z,83.40
2019-04-06T08:03:25.973Z,84.10
2019-04-06T08:05:55.475Z,81.57
2019-04-06T08:08:25.018Z,83.33
2019-04-06T08:10:54.693Z,79.43
2019-04-06T08:13:24.144Z,83.20
2019-04-06T08:15:53.593Z,79.90
2019-04-06T08:18:23.038Z,77.63
2019-04-06T08:20:52.483Z,82.30
2019-04-06T08:23:21.887Z,79.73
2019-04-06T08:25:51.259Z,79.80
2019-04-06T08:28:20.737Z,75.10
2019-04-06T08:30:50.271Z,72.37
2019-04-06T08:33:19.675Z,78.67
2019-04-06T08:36:03.361Z,78.97
2019-04-06T08:38:32.887Z,76.17
2019-04-06T08:41:02.298Z,74.77
2019-04-06T08:43:31.670Z,69.27
2019-04-06T08:46:01.224Z,66.90
2019-04-06T08:48:30.596Z,69.43
2019-04-06T08:51:00.258Z,67.63
2019-04-06T08:53:29.635Z,66.67
2019-04-06T08:55:59.112Z,66.83
2019-04-06T08:58:28.469Z,66.40
2019-04-06T09:00:57.951Z,66.10
2019-04-06T09:03:27.426Z,63.50
2019-04-06T09:05:57.041Z,62.80
2019-04-06T09:08:26.628Z,64.60
2019-04-06T09:10:56.095Z,66.97
2019-04-06T09:13:25.708Z,60.53
2019-04-06T09:15:55.183Z,59.93
2019-04-06T09:18:24.552Z,60.53
2019-04-06T09:20:54.217Z,59.40
2019-04-06T09:23:23.666Z,57.53
2019-04-06T09:25:53.407Z,57.90
2019-04-06T09:28:23.105Z,54.47
2019-04-06T09:30:52.888Z,53.33
2019-04-06T09:33:22.457Z,52.13
2019-04-06T09:35:51.932Z,52.17
2019-04-06T09:38:22.866Z,51.27
2019-04-06T09:40:52.373Z,48.97
2019-04-06T09:43:21.917Z,49.53
2019-04-06T09:46:02.015Z,50.17
2019-04-06T09:48:42.101Z,51.73
2019-04-06T09:51:23.774Z,50.93
2019-04-06T09:54:11.131Z,49.60
2019-04-06T09:56:43.803Z,51.33
2019-04-06T09:59:34.638Z,48.13
2019-04-06T10:02:03.043Z,47.23
2019-04-06T10:04:50.350Z,49.97
2019-04-06T10:07:39.934Z,48.83
2019-04-06T10:10:11.761Z,48.73
2019-04-06T10:12:51.932Z,52.93
2019-04-06T10:15:31.918Z,47.80
2019-04-06T10:18:06.176Z,49.53
2019-04-06T10:20:49.554Z,48.40
2019-04-06T10:23:20.678Z,47.47
2019-04-06T10:25:51.838Z,48.93
2019-04-06T10:28:31.960Z,49.53
2019-04-06T10:31:15.155Z,47.50
2019-04-06T10:33:52.161Z,49.53
2019-04-06T10:36:31.377Z,50.03
2019-04-06T10:39:08.290Z,51.37
2019-04-06T10:41:55.873Z,50.43
2019-04-06T10:44:39.190Z,49.93
2019-04-06T10:47:27.222Z,50.33
2019-04-06T10:50:01.155Z,51.33
2019-04-06T10:52:34.918Z,49.93
2019-04-06T10:55:07.567Z,53.20
2019-04-06T10:57:44.767Z,51.67
2019-04-06T11:00:15.982Z,50.40
2019-04-06T11:02:47.187Z,52.00
2019-04-06T11:05:18.392Z,52.10
2019-04-06T11:07:55.266Z,52.67
2019-04-06T11:10:42.790Z,53.50
2019-04-06T11:13:31.884Z,52.33
2019-04-06T11:16:21.429Z,52.03
2019-04-06T11:18:52.745Z,51.93
2019-04-06T11:21:23.900Z,51.43
2019-04-06T11:23:58.218Z,52.23
2019-04-06T11:26:29.229Z,52.20
2019-04-06T11:29:06.409Z,52.50
2019-04-06T11:31:37.425Z,51.63
2019-04-06T11:34:26.832Z,51.87
2019-04-06T11:37:14.527Z,52.50
2019-04-06T11:39:54.510Z,51.97
2019-04-06T11:42:28.371Z,51.57
2019-04-06T11:45:08.826Z,52.00
2019-04-06T11:47:45.691Z,53.20
2019-04-06T11:50:25.755Z,51.77
2019-04-06T11:52:56.924Z,49.87
2019-04-06T11:55:31.123Z,51.37
2019-04-06T11:58:30.205Z,50.63
2019-04-06T12:01:12.992Z,51.53
2019-04-06T12:04:00.712Z,51.23
2019-04-06T12:06:31.834Z,51.00
2019-04-06T12:09:08.836Z,51.60
2019-04-06T12:11:51.837Z,52.13
2019-04-06T12:14:41.396Z,50.93
2019-04-06T12:17:24.414Z,49.90
2019-04-06T12:20:03.019Z,49.27
2019-04-06T12:22:40.184Z,50.17
2019-04-06T12:25:29.570Z,49.53
2019-04-06T12:28:06.752Z,48.50
2019-04-06T12:30:39.159Z,47.27
2019-04-06T12:33:18.212Z,49.37
2019-04-06T12:35:52.057Z,48.23
2019-04-06T12:38:39.479Z,51.07
2019-04-06T12:41:26.203Z,48.47
2019-04-06T12:44:00.223Z,53.00
2019-04-06T12:46:47.870Z,50.07
2019-04-06T12:49:35.393Z,49.10
2019-04-06T12:52:09.572Z,49.77
2019-04-06T12:54:46.461Z,50.67
2019-04-06T12:57:17.765Z,50.53
2019-04-06T12:59:51.770Z,51.60
2019-04-06T13:02:28.911Z,51.37
2019-04-06T13:04:59.935Z,50.70
2019-04-06T13:07:34.011Z,51.33
2019-04-06T13:10:07.339Z,51.07
2019-04-06T13:12:44.547Z,50.80
2019-04-06T13:15:32.067Z,51.27
2019-04-06T13:18:03.116Z,50.47
2019-04-06T13:20:34.497Z,50.93
2019-04-06T13:23:08.666Z,51.93
2019-04-06T13:25:56.172Z,52.20
2019-04-06T13:28:41.141Z,52.27
2019-04-06T13:31:30.445Z,50.87
2019-04-06T13:34:14.808Z,51.10
2019-04-06T13:36:48.400Z,52.97
2019-04-06T13:39:19.531Z,51.00
2019-04-06T13:42:06.849Z,51.40
2019-04-06T13:44:54.629Z,51.03
2019-04-06T13:47:25.795Z,51.07
2019-04-06T13:50:03.115Z,51.10
2019-04-06T13:52:50.678Z,51.07
2019-04-06T13:55:37.820Z,50.40
2019-04-06T13:58:08.908Z,48.97
2019-04-06T14:00:58.434Z,50.30
2019-04-06T14:03:29.471Z,49.93
2019-04-06T14:06:12.919Z,51.23
2019-04-06T14:09:00.767Z,50.17
2019-04-06T14:11:31.921Z,50.20
2019-04-06T14:14:15.237Z,50.43
2019-04-06T14:16:48.929Z,50.63
2019-04-06T14:19:20.043Z,50.93
2019-04-06T14:21:57.687Z,59.80
2019-04-06T14:24:28.885Z,59.00
2019-04-06T14:27:11.759Z,58.97
2019-04-06T14:29:42.987Z,60.90
2019-04-06T14:32:30.621Z,59.07
2019-04-06T14:35:01.873Z,58.00
2019-04-06T14:37:32.943Z,60.40
2019-04-06T14:40:06.685Z,61.13
2019-04-06T14:42:42.852Z,59.83
2019-04-06T14:45:21.132Z,60.37
2019-04-06T14:48:01.012Z,62.53
2019-04-06T14:50:47.996Z,61.87
2019-04-06T14:53:19.251Z,59.07
2019-04-06T14:55:53.564Z,58.97
2019-04-06T14:58:41.303Z,60.00
2019-04-06T15:01:12.466Z,59.87
2019-04-06T15:03:49.609Z,57.53
2019-04-06T15:06:37.136Z,57.43
2019-04-06T15:09:27.557Z,58.33
2019-04-06T15:12:13.651Z,58.83
2019-04-06T15:14:53.560Z,47.07
2019-04-06T15:17:27.263Z,51.47
2019-04-06T15:19:58.490Z,49.07
2019-04-06T15:22:35.378Z,48.17
2019-04-06T15:25:11.320Z,46.67
2019-04-06T15:27:48.211Z,61.83
2019-04-06T15:30:34.795Z,64.70
2019-04-06T15:33:21.092Z,47.03
2019-04-06T15:35:57.860Z,55.47
2019-04-06T15:38:31.884Z,48.43
2019-04-06T15:41:19.208Z,47.60
2019-04-06T15:44:08.993Z,43.57
2019-04-06T15:46:40.232Z,44.47
2019-04-06T15:49:17.658Z,45.07
2019-04-06T15:51:54.631Z,45.00
2019-04-06T15:54:38.096Z,44.93
2019-04-06T15:57:09.157Z,63.83
2019-04-06T15:59:40.233Z,69.37
2019-04-06T16:02:27.616Z,64.77
2019-04-06T16:05:11.036Z,62.50
2019-04-06T16:07:45.002Z,62.83
2019-04-06T16:10:16.471Z,64.83
2019-04-06T16:13:04.434Z,63.90
2019-04-06T16:15:39.246Z,58.73
2019-04-06T16:18:19.815Z,59.83
2019-04-06T16:20:59.679Z,60.80
2019-04-06T16:23:37.032Z,56.77
2019-04-06T16:26:10.995Z,60.70
2019-04-06T16:28:46.556Z,62.07
2019-04-06T16:31:32.806Z,59.53
2019-04-06T16:34:22.423Z,63.90
2019-04-06T16:36:53.770Z,62.90
2019-04-06T16:39:27.778Z,63.53
2019-04-06T16:41:59.030Z,66.23
2019-04-06T16:44:39.807Z,63.70
2019-04-06T16:47:11.357Z,58.27
2019-04-06T16:49:51.691Z,55.40
2019-04-06T16:52:39.169Z,60.10
2019-04-06T16:55:16.553Z,64.80
2019-04-06T16:57:48.214Z,63.57
2019-04-06T17:00:25.979Z,66.67
2019-04-06T17:03:00.839Z,65.27
2019-04-06T17:05:38.634Z,69.63
2019-04-06T17:08:26.535Z,65.90
2019-04-06T17:10:57.881Z,60.93
2019-04-06T17:13:38.299Z,60.87
2019-04-06T17:16:19.336Z,60.53
2019-04-06T17:18:53.344Z,69.57
2019-04-06T17:21:33.398Z,68.63
2019-04-06T17:24:16.751Z,74.23
2019-04-06T17:26:57.117Z,70.93
2019-04-06T17:29:30.111Z,68.40
2019-04-06T17:32:13.362Z,72.17
2019-04-06T17:35:02.865Z,74.07
2019-04-06T17:37:52.209Z,76.37
2019-04-06T17:40:29.898Z,69.67
2019-04-06T17:43:13.350Z,66.97
2019-04-06T17:45:44.441Z,72.33
2019-04-06T17:48:27.792Z,72.23
2019-04-06T17:51:11.142Z,71.07
2019-04-06T17:53:45.414Z,74.30
2019-04-06T17:56:33.239Z,74.40
2019-04-06T17:59:10.380Z,76.43
2019-04-06T18:01:57.918Z,74.47
2019-04-06T18:04:29.385Z,72.37
2019-04-06T18:07:00.728Z,77.90
2019-04-06T18:09:31.930Z,72.87
2019-04-06T18:12:03.098Z,72.43
2019-04-06T18:14:32.953Z,74.60
2019-04-06T18:17:02.415Z,76.30
2019-04-06T18:19:34.095Z,81.37
2019-04-06T18:22:02.952Z,74.90
2019-04-06T18:24:32.732Z,69.73
2019-04-06T18:27:02.115Z,63.63
2019-04-06T18:29:31.947Z,69.43
2019-04-06T18:32:05.919Z,67.40
2019-04-06T18:34:35.954Z,67.17
2019-04-06T18:37:10.098Z,71.50
2019-04-06T18:39:39.708Z,69.57
2019-04-06T18:42:09.618Z,67.13
2019-04-06T18:44:40.051Z,76.57
2019-04-06T18:47:09.634Z,75.97
2019-04-06T18:49:39.175Z,68.03
2019-04-06T18:52:08.632Z,63.30
2019-04-06T18:54:38.099Z,67.77
2019-04-06T18:57:07.578Z,76.67
2019-04-06T18:59:37.071Z,74.00
2019-04-06T19:02:06.663Z,76.40
2019-04-06T19:04:36.074Z,83.77
2019-04-06T19:07:06.067Z,74.87
2019-04-06T19:09:35.521Z,79.73
2019-04-06T19:12:05.337Z,87.50
2019-04-06T19:14:34.807Z,76.33
2019-04-06T19:17:04.320Z,65.33
2019-04-06T19:19:34.459Z,69.77
2019-04-06T19:22:03.923Z,62.47
2019-04-06T19:24:33.839Z,69.17
2019-04-06T19:27:03.595Z,64.90
2019-04-06T19:29:33.220Z,57.80
2019-04-06T19:32:02.910Z,61.50
2019-04-06T19:34:32.596Z,64.60
2019-04-06T19:37:02.139Z,66.67
2019-04-06T19:39:31.911Z,79.77
2019-04-06T19:42:01.825Z,79.47
2019-04-06T19:44:31.572Z,81.17
2019-04-06T19:47:01.139Z,82.27
2019-04-06T19:49:30.708Z,97.23
2019-04-06T19:52:00.173Z,98.00
2019-04-06T19:54:29.647Z,104.27
2019-04-06T19:56:59.070Z,103.57
2019-04-06T19:59:28.902Z,107.63
2019-04-06T20:01:58.695Z,107.47
2019-04-06T20:04:28.178Z,102.33
2019-04-06T20:06:59.101Z,102.73
2019-04-06T20:09:30.149Z,106.97
2019-04-06T20:12:05.650Z,113.97
2019-04-06T20:14:30.779Z,110.87
2019-04-06T20:17:00.221Z,112.87
2019-04-06T20:19:30.099Z,112.90
2019-04-06T20:21:59.720Z,110.37
2019-04-06T20:24:29.945Z,108.90
2019-04-06T20:26:59.969Z,107.50
2019-04-06T20:29:29.530Z,111.27
2019-04-06T20:31:59.185Z,104.50
2019-04-06T20:34:28.631Z,111.33
2019-04-06T20:36:58.068Z,74.00
2019-04-06T20:39:27.463Z,55.80
2019-04-06T20:41:57.019Z,65.03
2019-04-06T20:44:27.105Z,63.10
2019-04-06T20:46:56.504Z,71.37
2019-04-06T20:49:26.292Z,64.20
2019-04-06T20:51:55.894Z,85.80
2019-04-06T20:54:25.291Z,81.37
2019-04-06T20:56:57.954Z,71.90
2019-04-06T20:59:26.370Z,70.00
2019-04-06T21:01:55.741Z,77.27
2019-04-06T21:04:25.170Z,70.73
2019-04-06T21:06:54.969Z,70.17
2019-04-06T21:09:24.578Z,63.70
2019-04-06T21:11:54.610Z,63.60
2019-04-06T21:14:24.226Z,71.60
2019-04-06T21:16:54.601Z,76.13
2019-04-06T21:19:24.092Z,80.20
2019-04-06T21:21:53.617Z,95.30
2019-04-06T21:24:23.504Z,99.20
2019-04-06T21:26:53.596Z,101.73
2019-04-06T21:29:23.478Z,108.90
2019-04-06T21:31:53.055Z,116.67
2019-04-06T21:34:22.481Z,115.37
2019-04-06T21:36:52.028Z,111.87
2019-04-06T21:39:21.435Z,101.47
2019-04-06T21:41:50.900Z,89.13
2019-04-06T21:44:20.457Z,78.80
2019-04-06T21:46:50.014Z,73.67
2019-04-06T21:49:19.903Z,82.67
2019-04-06T21:51:49.517Z,77.93
2019-04-06T21:54:19.227Z,89.30
2019-04-06T21:56:49.115Z,96.63
2019-04-06T21:59:18.642Z,92.30
2019-04-06T22:01:48.760Z,103.87
2019-04-06T22:04:25.374Z,103.83
2019-04-06T22:06:49.291Z,101.33
2019-04-06T22:09:18.814Z,99.80
2019-04-06T22:11:48.239Z,98.50
2019-04-06T22:14:17.766Z,109.27
2019-04-06T22:16:47.297Z,105.77
2019-04-06T22:19:16.993Z,96.13
2019-04-06T22:21:46.614Z,97.53
2019-04-06T22:24:16.131Z,106.00
2019-04-06T22:26:45.971Z,111.57
2019-04-06T22:29:15.607Z,107.60
2019-04-06T22:31:45.076Z,110.67
2019-04-06T22:34:14.521Z,108.97
2019-04-06T22:36:44.504Z,113.30
2019-04-06T22:39:14.643Z,108.30
2019-04-06T22:41:44.209Z,106.17
2019-04-06T22:44:13.602Z,104.00
2019-04-06T22:46:43.175Z,105.50
2019-04-06T22:49:12.623Z,100.57
2019-04-06T22:51:42.246Z,105.00
2019-04-06T22:54:11.678Z,101.97
2019-04-06T22:56:42.927Z,104.27
2019-04-06T22:59:12.936Z,107.60
2019-04-06T23:01:42.868Z,106.87
2019-04-06T23:04:20.296Z,104.27
2019-04-06T23:06:51.526Z,102.03
2019-04-06T23:09:21.251Z,101.93
2019-04-06T23:11:51.368Z,100.33
2019-04-06T23:14:20.996Z,102.50
2019-04-06T23:16:50.480Z,101.50
2019-04-06T23:19:20.232Z,100.43
2019-04-06T23:21:49.715Z,95.87
2019-04-06T23:24:19.353Z,96.63
2019-04-06T23:26:49.830Z,96.23
2019-04-06T23:29:19.476Z,94.13
2019-04-06T23:31:49.482Z,93.50
2019-04-06T23:34:19.224Z,92.33
2019-04-06T23:36:48.755Z,92.87
2019-04-06T23:39:18.452Z,93.47
2019-04-06T23:41:48.407Z,97.80
2019-04-06T23:44:18.394Z,102.67
2019-04-06T23:46:48.703Z,102.60
2019-04-06T23:49:18.206Z,102.70
2019-04-06T23:51:47.726Z,100.73
2019-04-06T23:54:17.130Z,103.80
2019-04-06T23:56:46.534Z,100.63
2019-04-06T23:59:16.397Z,100.57
